sensor_id;sensor_type;location;lat;lon;timestamp;P1;durP1;ratioP1;P2;durP2;ratioP2
5971;SDS011;3012;49.944;8.454;2023-08-06T00:02:24;2.90;;;2.70;;
5971;SDS011;3012;49.944;8.454;2023-08-06T00:04:53;2.35;;;2.15;;
5971;SDS011;3012;49.944;8.454;2023-08-06T00:07:24;4.53;;;2.20;;
5971;SDS011;3012;49.944;8.454;2023-08-06T00:09:54;2.90;;;2.70;;
5971;SDS011;3012;49.944;8.454;2023-08-06T00:12:26;3.28;;;3.00;;
5971;SDS011;3012;49.944;8.454;2023-08-06T00:14:57;3.30;;;2.47;;
5971;SDS011;3012;49.944;8.454;2023-08-06T00:17:27;8.85;;;3.15;;
5971;SDS011;3012;49.944;8.454;2023-08-06T00:19:58;4.18;;;2.85;;
5971;SDS011;3012;49.944;8.454;2023-08-06T00:22:33;6.65;;;2.25;;
5971;SDS011;3012;49.944;8.454;2023-08-06T00:25:04;2.65;;;2.45;;
5971;SDS011;3012;49.944;8.454;2023-08-06T00:27:36;4.40;;;2.30;;
5971;SDS011;3012;49.944;8.454;2023-08-06T00:30:07;5.38;;;2.65;;
5971;SDS011;3012;49.944;8.454;2023-08-06T00:32:37;7.68;;;2.38;;
5971;SDS011;3012;49.944;8.454;2023-08-06T00:35:07;2.95;;;2.58;;
5971;SDS011;3012;49.944;8.454;2023-08-06T00:37:37;3.80;;;2.65;;
5971;SDS011;3012;49.944;8.454;2023-08-06T00:40:07;3.47;;;3.05;;
5971;SDS011;3012;49.944;8.454;2023-08-06T00:42:40;4.95;;;2.55;;
5971;SDS011;3012;49.944;8.454;2023-08-06T00:45:12;3.15;;;2.85;;
5971;SDS011;3012;49.944;8.454;2023-08-06T00:47:42;3.15;;;2.85;;
5971;SDS011;3012;49.944;8.454;2023-08-06T00:50:13;5.20;;;3.05;;
5971;SDS011;3012;49.944;8.454;2023-08-06T00:52:43;3.30;;;3.10;;
5971;SDS011;3012;49.944;8.454;2023-08-06T00:55:14;3.33;;;3.13;;
5971;SDS011;3012;49.944;8.454;2023-08-06T00:57:46;4.72;;;2.63;;
5971;SDS011;3012;49.944;8.454;2023-08-06T01:00:18;5.25;;;2.80;;
5971;SDS011;3012;49.944;8.454;2023-08-06T01:02:50;5.57;;;2.67;;
5971;SDS011;3012;49.944;8.454;2023-08-06T01:05:20;3.25;;;2.80;;
5971;SDS011;3012;49.944;8.454;2023-08-06T01:07:53;5.30;;;3.35;;
5971;SDS011;3012;49.944;8.454;2023-08-06T01:10:39;5.57;;;3.35;;
5971;SDS011;3012;49.944;8.454;2023-08-06T01:13:24;4.10;;;3.10;;
5971;SDS011;3012;49.944;8.454;2023-08-06T01:16:00;3.65;;;3.33;;
5971;SDS011;3012;49.944;8.454;2023-08-06T01:18:33;2.83;;;2.58;;
5971;SDS011;3012;49.944;8.454;2023-08-06T01:21:06;8.40;;;3.30;;
5971;SDS011;3012;49.944;8.454;2023-08-06T01:23:36;2.88;;;2.50;;
5971;SDS011;3012;49.944;8.454;2023-08-06T01:26:09;4.93;;;2.20;;
5971;SDS011;3012;49.944;8.454;2023-08-06T01:28:46;2.95;;;2.28;;
5971;SDS011;3012;49.944;8.454;2023-08-06T01:31:21;4.05;;;2.40;;
5971;SDS011;3012;49.944;8.454;2023-08-06T01:33:55;5.22;;;2.75;;
5971;SDS011;3012;49.944;8.454;2023-08-06T01:36:28;2.35;;;2.20;;
5971;SDS011;3012;49.944;8.454;2023-08-06T01:39:00;5.95;;;2.88;;
5971;SDS011;3012;49.944;8.454;2023-08-06T01:41:31;4.35;;;3.05;;
5971;SDS011;3012;49.944;8.454;2023-08-06T01:44:01;5.43;;;2.35;;
5971;SDS011;3012;49.944;8.454;2023-08-06T01:46:31;4.00;;;2.50;;
5971;SDS011;3012;49.944;8.454;2023-08-06T01:49:01;3.13;;;2.88;;
5971;SDS011;3012;49.944;8.454;2023-08-06T01:51:33;3.83;;;2.63;;
5971;SDS011;3012;49.944;8.454;2023-08-06T01:54:03;7.63;;;2.65;;
5971;SDS011;3012;49.944;8.454;2023-08-06T01:56:33;2.67;;;2.47;;
5971;SDS011;3012;49.944;8.454;2023-08-06T01:59:04;4.93;;;2.55;;
5971;SDS011;3012;49.944;8.454;2023-08-06T02:01:34;3.85;;;3.08;;
5971;SDS011;3012;49.944;8.454;2023-08-06T02:04:04;2.42;;;2.33;;
5971;SDS011;3012;49.944;8.454;2023-08-06T02:06:36;3.42;;;2.58;;
5971;SDS011;3012;49.944;8.454;2023-08-06T02:09:06;2.55;;;2.35;;
5971;SDS011;3012;49.944;8.454;2023-08-06T02:11:36;8.10;;;2.53;;
5971;SDS011;3012;49.944;8.454;2023-08-06T02:14:06;2.33;;;1.73;;
5971;SDS011;3012;49.944;8.454;2023-08-06T02:16:36;2.00;;;1.80;;
5971;SDS011;3012;49.944;8.454;2023-08-06T02:19:06;2.92;;;2.53;;
5971;SDS011;3012;49.944;8.454;2023-08-06T02:21:38;6.85;;;2.30;;
5971;SDS011;3012;49.944;8.454;2023-08-06T02:24:08;5.63;;;2.53;;
5971;SDS011;3012;49.944;8.454;2023-08-06T02:26:38;2.15;;;1.83;;
5971;SDS011;3012;49.944;8.454;2023-08-06T02:29:08;4.10;;;2.20;;
5971;SDS011;3012;49.944;8.454;2023-08-06T02:31:38;2.95;;;2.38;;
5971;SDS011;3012;49.944;8.454;2023-08-06T02:34:09;3.08;;;1.90;;
5971;SDS011;3012;49.944;8.454;2023-08-06T02:36:40;5.28;;;2.38;;
5971;SDS011;3012;49.944;8.454;2023-08-06T02:39:11;1.90;;;1.80;;
5971;SDS011;3012;49.944;8.454;2023-08-06T02:41:41;2.25;;;1.77;;
5971;SDS011;3012;49.944;8.454;2023-08-06T02:44:12;10.90;;;2.45;;
5971;SDS011;3012;49.944;8.454;2023-08-06T02:46:43;6.35;;;2.40;;
5971;SDS011;3012;49.944;8.454;2023-08-06T02:49:14;3.60;;;1.65;;
5971;SDS011;3012;49.944;8.454;2023-08-06T02:51:46;5.60;;;1.88;;
5971;SDS011;3012;49.944;8.454;2023-08-06T02:54:16;4.03;;;1.90;;
5971;SDS011;3012;49.944;8.454;2023-08-06T02:56:47;4.45;;;2.00;;
5971;SDS011;3012;49.944;8.454;2023-08-06T02:59:17;4.50;;;1.95;;
5971;SDS011;3012;49.944;8.454;2023-08-06T03:01:47;1.95;;;1.92;;
5971;SDS011;3012;49.944;8.454;2023-08-06T03:04:17;2.58;;;1.70;;
5971;SDS011;3012;49.944;8.454;2023-08-06T03:06:50;4.55;;;2.45;;
5971;SDS011;3012;49.944;8.454;2023-08-06T03:09:20;2.75;;;1.80;;
5971;SDS011;3012;49.944;8.454;2023-08-06T03:11:50;3.00;;;1.92;;
5971;SDS011;3012;49.944;8.454;2023-08-06T03:14:20;1.60;;;1.50;;
5971;SDS011;3012;49.944;8.454;2023-08-06T03:16:51;3.03;;;2.20;;
5971;SDS011;3012;49.944;8.454;2023-08-06T03:19:21;1.33;;;1.25;;
5971;SDS011;3012;49.944;8.454;2023-08-06T03:21:52;1.73;;;1.70;;
5971;SDS011;3012;49.944;8.454;2023-08-06T03:24:22;4.13;;;1.60;;
5971;SDS011;3012;49.944;8.454;2023-08-06T03:26:52;1.77;;;1.67;;
5971;SDS011;3012;49.944;8.454;2023-08-06T03:29:23;3.17;;;1.58;;
5971;SDS011;3012;49.944;8.454;2023-08-06T03:31:53;1.70;;;1.70;;
5971;SDS011;3012;49.944;8.454;2023-08-06T03:34:23;1.92;;;1.77;;
5971;SDS011;3012;49.944;8.454;2023-08-06T03:36:54;3.22;;;1.67;;
5971;SDS011;3012;49.944;8.454;2023-08-06T03:39:24;3.28;;;1.80;;
5971;SDS011;3012;49.944;8.454;2023-08-06T03:41:54;3.22;;;1.63;;
5971;SDS011;3012;49.944;8.454;2023-08-06T03:44:24;1.25;;;1.23;;
5971;SDS011;3012;49.944;8.454;2023-08-06T03:46:55;1.73;;;1.63;;
5971;SDS011;3012;49.944;8.454;2023-08-06T03:49:25;1.63;;;1.52;;
5971;SDS011;3012;49.944;8.454;2023-08-06T03:51:57;1.50;;;1.25;;
5971;SDS011;3012;49.944;8.454;2023-08-06T03:54:27;6.47;;;1.40;;
5971;SDS011;3012;49.944;8.454;2023-08-06T03:56:58;3.85;;;1.05;;
5971;SDS011;3012;49.944;8.454;2023-08-06T03:59:28;2.47;;;1.05;;
5971;SDS011;3012;49.944;8.454;2023-08-06T04:01:58;1.90;;;1.50;;
5971;SDS011;3012;49.944;8.454;2023-08-06T04:04:28;1.52;;;1.27;;
5971;SDS011;3012;49.944;8.454;2023-08-06T04:07:00;2.15;;;1.48;;
5971;SDS011;3012;49.944;8.454;2023-08-06T04:09:30;2.90;;;1.30;;
5971;SDS011;3012;49.944;8.454;2023-08-06T04:12:00;3.97;;;1.02;;
5971;SDS011;3012;49.944;8.454;2023-08-06T04:14:31;0.80;;;0.60;;
5971;SDS011;3012;49.944;8.454;2023-08-06T04:17:01;4.50;;;0.47;;
5971;SDS011;3012;49.944;8.454;2023-08-06T04:19:32;1.65;;;0.40;;
5971;SDS011;3012;49.944;8.454;2023-08-06T04:22:03;0.63;;;0.45;;
5971;SDS011;3012;49.944;8.454;2023-08-06T04:24:33;0.68;;;0.68;;
5971;SDS011;3012;49.944;8.454;2023-08-06T04:27:04;1.50;;;0.40;;
5971;SDS011;3012;49.944;8.454;2023-08-06T04:29:34;1.33;;;0.50;;
5971;SDS011;3012;49.944;8.454;2023-08-06T04:32:05;0.52;;;0.52;;
5971;SDS011;3012;49.944;8.454;2023-08-06T04:34:37;3.10;;;0.40;;
5971;SDS011;3012;49.944;8.454;2023-08-06T04:37:09;2.60;;;0.35;;
5971;SDS011;3012;49.944;8.454;2023-08-06T04:39:39;3.78;;;0.30;;
5971;SDS011;3012;49.944;8.454;2023-08-06T04:42:10;2.33;;;0.25;;
5971;SDS011;3012;49.944;8.454;2023-08-06T04:44:41;1.98;;;0.30;;
5971;SDS011;3012;49.944;8.454;2023-08-06T04:47:12;1.27;;;0.60;;
5971;SDS011;3012;49.944;8.454;2023-08-06T04:49:44;3.97;;;0.50;;
5971;SDS011;3012;49.944;8.454;2023-08-06T04:52:18;1.25;;;0.50;;
5971;SDS011;3012;49.944;8.454;2023-08-06T04:54:55;4.65;;;0.43;;
5971;SDS011;3012;49.944;8.454;2023-08-06T04:57:26;2.17;;;0.55;;
5971;SDS011;3012;49.944;8.454;2023-08-06T04:59:58;0.65;;;0.55;;
5971;SDS011;3012;49.944;8.454;2023-08-06T05:02:29;0.85;;;0.40;;
5971;SDS011;3012;49.944;8.454;2023-08-06T05:05:00;2.65;;;0.52;;
5971;SDS011;3012;49.944;8.454;2023-08-06T05:07:32;0.65;;;0.60;;
5971;SDS011;3012;49.944;8.454;2023-08-06T05:10:03;1.02;;;0.30;;
5971;SDS011;3012;49.944;8.454;2023-08-06T05:12:33;1.70;;;0.60;;
5971;SDS011;3012;49.944;8.454;2023-08-06T05:15:05;0.57;;;0.57;;
5971;SDS011;3012;49.944;8.454;2023-08-06T05:17:37;1.02;;;0.35;;
5971;SDS011;3012;49.944;8.454;2023-08-06T05:20:08;1.10;;;0.60;;
5971;SDS011;3012;49.944;8.454;2023-08-06T05:22:43;1.83;;;0.38;;
5971;SDS011;3012;49.944;8.454;2023-08-06T05:25:13;2.63;;;0.77;;
5971;SDS011;3012;49.944;8.454;2023-08-06T05:27:44;3.25;;;0.60;;
5971;SDS011;3012;49.944;8.454;2023-08-06T05:30:14;1.20;;;0.38;;
5971;SDS011;3012;49.944;8.454;2023-08-06T05:32:46;4.22;;;0.30;;
5971;SDS011;3012;49.944;8.454;2023-08-06T05:35:16;1.08;;;0.30;;
5971;SDS011;3012;49.944;8.454;2023-08-06T05:37:50;1.20;;;0.52;;
5971;SDS011;3012;49.944;8.454;2023-08-06T05:40:20;0.43;;;0.20;;
5971;SDS011;3012;49.944;8.454;2023-08-06T05:42:53;2.25;;;0.43;;
5971;SDS011;3012;49.944;8.454;2023-08-06T05:45:23;0.20;;;0.20;;
5971;SDS011;3012;49.944;8.454;2023-08-06T05:47:53;1.10;;;0.30;;
5971;SDS011;3012;49.944;8.454;2023-08-06T05:50:25;0.65;;;0.30;;
5971;SDS011;3012;49.944;8.454;2023-08-06T05:52:57;1.10;;;0.30;;
5971;SDS011;3012;49.944;8.454;2023-08-06T05:55:27;1.70;;;0.20;;
5971;SDS011;3012;49.944;8.454;2023-08-06T05:57:58;0.75;;;0.15;;
5971;SDS011;3012;49.944;8.454;2023-08-06T06:00:29;0.10;;;0.00;;
5971;SDS011;3012;49.944;8.454;2023-08-06T06:02:59;0.93;;;0.00;;
5971;SDS011;3012;49.944;8.454;2023-08-06T06:05:29;1.13;;;0.10;;
5971;SDS011;3012;49.944;8.454;2023-08-06T06:08:03;0.10;;;0.10;;
5971;SDS011;3012;49.944;8.454;2023-08-06T06:10:33;0.15;;;0.10;;
5971;SDS011;3012;49.944;8.454;2023-08-06T06:13:04;1.58;;;0.20;;
5971;SDS011;3012;49.944;8.454;2023-08-06T06:15:36;3.88;;;0.20;;
5971;SDS011;3012;49.944;8.454;2023-08-06T06:18:08;0.65;;;0.10;;
5971;SDS011;3012;49.944;8.454;2023-08-06T06:20:39;1.25;;;0.10;;
5971;SDS011;3012;49.944;8.454;2023-08-06T06:23:14;0.65;;;0.15;;
5971;SDS011;3012;49.944;8.454;2023-08-06T06:25:47;1.58;;;0.22;;
5971;SDS011;3012;49.944;8.454;2023-08-06T06:28:20;2.67;;;0.20;;
5971;SDS011;3012;49.944;8.454;2023-08-06T06:30:51;0.10;;;0.10;;
5971;SDS011;3012;49.944;8.454;2023-08-06T06:33:21;0.50;;;0.10;;
5971;SDS011;3012;49.944;8.454;2023-08-06T06:35:51;0.00;;;0.00;;
5971;SDS011;3012;49.944;8.454;2023-08-06T06:38:23;1.52;;;0.10;;
5971;SDS011;3012;49.944;8.454;2023-08-06T06:40:54;0.30;;;0.00;;
5971;SDS011;3012;49.944;8.454;2023-08-06T06:43:25;0.08;;;0.08;;
5971;SDS011;3012;49.944;8.454;2023-08-06T06:45:56;0.00;;;0.00;;
5971;SDS011;3012;49.944;8.454;2023-08-06T06:48:29;0.00;;;0.00;;
5971;SDS011;3012;49.944;8.454;2023-08-06T06:51:01;0.40;;;0.40;;
5971;SDS011;3012;49.944;8.454;2023-08-06T06:53:34;0.00;;;0.00;;
5971;SDS011;3012;49.944;8.454;2023-08-06T06:56:06;3.10;;;0.10;;
5971;SDS011;3012;49.944;8.454;2023-08-06T06:58:37;0.10;;;0.00;;
5971;SDS011;3012;49.944;8.454;2023-08-06T07:01:09;1.08;;;0.10;;
5971;SDS011;3012;49.944;8.454;2023-08-06T07:03:39;3.40;;;0.10;;
5971;SDS011;3012;49.944;8.454;2023-08-06T07:06:10;1.92;;;0.10;;
5971;SDS011;3012;49.944;8.454;2023-08-06T07:08:44;0.52;;;0.03;;
5971;SDS011;3012;49.944;8.454;2023-08-06T07:11:14;2.20;;;0.15;;
5971;SDS011;3012;49.944;8.454;2023-08-06T07:13:44;1.80;;;0.20;;
5971;SDS011;3012;49.944;8.454;2023-08-06T07:16:14;0.75;;;0.05;;
5971;SDS011;3012;49.944;8.454;2023-08-06T07:18:45;1.60;;;0.00;;
5971;SDS011;3012;49.944;8.454;2023-08-06T07:21:15;1.02;;;0.00;;
5971;SDS011;3012;49.944;8.454;2023-08-06T07:23:47;0.10;;;0.10;;
5971;SDS011;3012;49.944;8.454;2023-08-06T07:26:17;0.30;;;0.00;;
5971;SDS011;3012;49.944;8.454;2023-08-06T07:28:47;0.05;;;0.00;;
5971;SDS011;3012;49.944;8.454;2023-08-06T07:31:18;1.08;;;0.13;;
5971;SDS011;3012;49.944;8.454;2023-08-06T07:33:48;1.40;;;0.20;;
5971;SDS011;3012;49.944;8.454;2023-08-06T07:36:19;0.15;;;0.10;;
5971;SDS011;3012;49.944;8.454;2023-08-06T07:38:51;2.08;;;0.10;;
5971;SDS011;3012;49.944;8.454;2023-08-06T07:41:23;0.52;;;0.10;;
5971;SDS011;3012;49.944;8.454;2023-08-06T07:43:54;0.05;;;0.05;;
5971;SDS011;3012;49.944;8.454;2023-08-06T07:46:25;0.10;;;0.10;;
5971;SDS011;3012;49.944;8.454;2023-08-06T07:48:55;0.17;;;0.05;;
5971;SDS011;3012;49.944;8.454;2023-08-06T07:51:26;0.98;;;0.05;;
5971;SDS011;3012;49.944;8.454;2023-08-06T07:54:00;0.15;;;0.05;;
5971;SDS011;3012;49.944;8.454;2023-08-06T07:56:31;0.38;;;0.10;;
5971;SDS011;3012;49.944;8.454;2023-08-06T07:59:03;0.30;;;0.00;;
5971;SDS011;3012;49.944;8.454;2023-08-06T08:01:35;0.00;;;0.00;;
5971;SDS011;3012;49.944;8.454;2023-08-06T08:04:07;3.90;;;0.13;;
5971;SDS011;3012;49.944;8.454;2023-08-06T08:06:39;0.63;;;0.10;;
5971;SDS011;3012;49.944;8.454;2023-08-06T08:09:13;0.52;;;0.10;;
5971;SDS011;3012;49.944;8.454;2023-08-06T08:11:44;0.15;;;0.15;;
5971;SDS011;3012;49.944;8.454;2023-08-06T08:14:15;0.20;;;0.10;;
5971;SDS011;3012;49.944;8.454;2023-08-06T08:16:47;0.05;;;0.05;;
5971;SDS011;3012;49.944;8.454;2023-08-06T08:19:19;0.05;;;0.05;;
5971;SDS011;3012;49.944;8.454;2023-08-06T08:21:50;0.03;;;0.03;;
5971;SDS011;3012;49.944;8.454;2023-08-06T08:24:24;0.10;;;0.10;;
5971;SDS011;3012;49.944;8.454;2023-08-06T08:26:54;0.10;;;0.10;;
5971;SDS011;3012;49.944;8.454;2023-08-06T08:29:25;0.30;;;0.00;;
5971;SDS011;3012;49.944;8.454;2023-08-06T08:31:57;1.55;;;0.10;;
5971;SDS011;3012;49.944;8.454;2023-08-06T08:34:28;1.95;;;0.10;;
5971;SDS011;3012;49.944;8.454;2023-08-06T08:36:59;0.55;;;0.10;;
5971;SDS011;3012;49.944;8.454;2023-08-06T08:39:32;0.10;;;0.00;;
5971;SDS011;3012;49.944;8.454;2023-08-06T08:42:03;0.65;;;0.08;;
5971;SDS011;3012;49.944;8.454;2023-08-06T08:44:34;0.03;;;0.03;;
5971;SDS011;3012;49.944;8.454;2023-08-06T08:47:06;0.73;;;0.00;;
5971;SDS011;3012;49.944;8.454;2023-08-06T08:49:37;0.08;;;0.08;;
5971;SDS011;3012;49.944;8.454;2023-08-06T08:52:07;0.10;;;0.10;;
5971;SDS011;3012;49.944;8.454;2023-08-06T08:54:42;0.00;;;0.00;;
5971;SDS011;3012;49.944;8.454;2023-08-06T08:57:13;1.40;;;0.10;;
5971;SDS011;3012;49.944;8.454;2023-08-06T08:59:43;0.08;;;0.08;;
5971;SDS011;3012;49.944;8.454;2023-08-06T09:02:13;0.00;;;0.00;;
5971;SDS011;3012;49.944;8.454;2023-08-06T09:04:45;0.75;;;0.10;;
5971;SDS011;3012;49.944;8.454;2023-08-06T09:07:17;1.00;;;0.00;;
5971;SDS011;3012;49.944;8.454;2023-08-06T09:09:50;0.00;;;0.00;;
5971;SDS011;3012;49.944;8.454;2023-08-06T09:12:21;0.75;;;0.15;;
5971;SDS011;3012;49.944;8.454;2023-08-06T09:14:51;1.88;;;0.00;;
5971;SDS011;3012;49.944;8.454;2023-08-06T09:17:21;0.15;;;0.15;;
5971;SDS011;3012;49.944;8.454;2023-08-06T09:19:51;1.33;;;0.00;;
5971;SDS011;3012;49.944;8.454;2023-08-06T09:22:22;0.52;;;0.00;;
5971;SDS011;3012;49.944;8.454;2023-08-06T09:24:55;0.40;;;0.00;;
5971;SDS011;3012;49.944;8.454;2023-08-06T09:27:26;0.00;;;0.00;;
5971;SDS011;3012;49.944;8.454;2023-08-06T09:29:56;0.10;;;0.00;;
5971;SDS011;3012;49.944;8.454;2023-08-06T09:32:26;0.00;;;0.00;;
5971;SDS011;3012;49.944;8.454;2023-08-06T09:35:00;0.10;;;0.10;;
5971;SDS011;3012;49.944;8.454;2023-08-06T09:37:35;0.85;;;0.20;;
5971;SDS011;3012;49.944;8.454;2023-08-06T09:40:20;0.00;;;0.00;;
5971;SDS011;3012;49.944;8.454;2023-08-06T09:42:55;0.22;;;0.00;;
5971;SDS011;3012;49.944;8.454;2023-08-06T09:45:29;0.30;;;0.00;;
5971;SDS011;3012;49.944;8.454;2023-08-06T09:48:02;1.92;;;0.10;;
5971;SDS011;3012;49.944;8.454;2023-08-06T09:50:35;0.00;;;0.00;;
5971;SDS011;3012;49.944;8.454;2023-08-06T09:53:07;0.10;;;0.00;;
5971;SDS011;3012;49.944;8.454;2023-08-06T09:55:40;0.13;;;0.10;;
5971;SDS011;3012;49.944;8.454;2023-08-06T09:58:10;0.32;;;0.00;;
5971;SDS011;3012;49.944;8.454;2023-08-06T10:00:41;1.65;;;0.00;;
5971;SDS011;3012;49.944;8.454;2023-08-06T10:03:12;0.10;;;0.10;;
5971;SDS011;3012;49.944;8.454;2023-08-06T10:05:45;0.00;;;0.00;;
5971;SDS011;3012;49.944;8.454;2023-08-06T10:08:15;0.75;;;0.10;;
5971;SDS011;3012;49.944;8.454;2023-08-06T10:10:47;0.00;;;0.00;;
5971;SDS011;3012;49.944;8.454;2023-08-06T10:13:21;2.03;;;0.20;;
5971;SDS011;3012;49.944;8.454;2023-08-06T10:15:52;0.00;;;0.00;;
5971;SDS011;3012;49.944;8.454;2023-08-06T10:18:22;0.20;;;0.20;;
5971;SDS011;3012;49.944;8.454;2023-08-06T10:20:53;0.00;;;0.00;;
5971;SDS011;3012;49.944;8.454;2023-08-06T10:23:32;0.08;;;0.00;;
5971;SDS011;3012;49.944;8.454;2023-08-06T10:26:07;0.95;;;0.00;;
5971;SDS011;3012;49.944;8.454;2023-08-06T10:28:37;0.60;;;0.08;;
5971;SDS011;3012;49.944;8.454;2023-08-06T10:31:09;0.00;;;0.00;;
5971;SDS011;3012;49.944;8.454;2023-08-06T10:33:41;0.10;;;0.00;;
5971;SDS011;3012;49.944;8.454;2023-08-06T10:36:12;0.00;;;0.00;;
5971;SDS011;3012;49.944;8.454;2023-08-06T10:38:46;0.00;;;0.00;;
5971;SDS011;3012;49.944;8.454;2023-08-06T10:41:21;0.00;;;0.00;;
5971;SDS011;3012;49.944;8.454;2023-08-06T10:43:52;0.03;;;0.03;;
5971;SDS011;3012;49.944;8.454;2023-08-06T10:46:36;0.00;;;0.00;;
5971;SDS011;3012;49.944;8.454;2023-08-06T10:49:08;0.00;;;0.00;;
5971;SDS011;3012;49.944;8.454;2023-08-06T10:51:40;0.00;;;0.00;;
5971;SDS011;3012;49.944;8.454;2023-08-06T10:54:11;0.65;;;0.00;;
5971;SDS011;3012;49.944;8.454;2023-08-06T10:56:42;0.30;;;0.15;;
5971;SDS011;3012;49.944;8.454;2023-08-06T10:59:15;0.20;;;0.00;;
5971;SDS011;3012;49.944;8.454;2023-08-06T11:01:45;0.00;;;0.00;;
5971;SDS011;3012;49.944;8.454;2023-08-06T11:04:15;0.00;;;0.00;;
5971;SDS011;3012;49.944;8.454;2023-08-06T11:06:46;2.55;;;0.00;;
5971;SDS011;3012;49.944;8.454;2023-08-06T11:09:22;0.00;;;0.00;;
5971;SDS011;3012;49.944;8.454;2023-08-06T11:11:54;0.85;;;0.00;;
5971;SDS011;3012;49.944;8.454;2023-08-06T11:14:24;1.02;;;0.00;;
5971;SDS011;3012;49.944;8.454;2023-08-06T11:16:54;1.85;;;0.00;;
5971;SDS011;3012;49.944;8.454;2023-08-06T11:19:24;0.00;;;0.00;;
5971;SDS011;3012;49.944;8.454;2023-08-06T11:21:54;0.00;;;0.00;;
5971;SDS011;3012;49.944;8.454;2023-08-06T11:24:25;0.30;;;0.00;;
5971;SDS011;3012;49.944;8.454;2023-08-06T11:26:57;0.20;;;0.00;;
5971;SDS011;3012;49.944;8.454;2023-08-06T11:29:27;1.60;;;0.00;;
5971;SDS011;3012;49.944;8.454;2023-08-06T11:32:03;0.00;;;0.00;;
5971;SDS011;3012;49.944;8.454;2023-08-06T11:34:33;4.60;;;0.00;;
5971;SDS011;3012;49.944;8.454;2023-08-06T11:37:03;0.00;;;0.00;;
5971;SDS011;3012;49.944;8.454;2023-08-06T11:39:34;1.13;;;0.00;;
5971;SDS011;3012;49.944;8.454;2023-08-06T11:42:06;0.00;;;0.00;;
5971;SDS011;3012;49.944;8.454;2023-08-06T11:44:37;0.00;;;0.00;;
5971;SDS011;3012;49.944;8.454;2023-08-06T11:47:12;0.20;;;0.00;;
5971;SDS011;3012;49.944;8.454;2023-08-06T11:49:44;0.00;;;0.00;;
5971;SDS011;3012;49.944;8.454;2023-08-06T11:52:15;0.03;;;0.00;;
5971;SDS011;3012;49.944;8.454;2023-08-06T11:54:47;0.00;;;0.00;;
5971;SDS011;3012;49.944;8.454;2023-08-06T11:57:31;2.65;;;0.00;;
5971;SDS011;3012;49.944;8.454;2023-08-06T12:00:03;2.05;;;0.10;;
5971;SDS011;3012;49.944;8.454;2023-08-06T12:02:33;0.05;;;0.00;;
5971;SDS011;3012;49.944;8.454;2023-08-06T12:05:09;1.45;;;0.00;;
5971;SDS011;3012;49.944;8.454;2023-08-06T12:07:41;0.00;;;0.00;;
5971;SDS011;3012;49.944;8.454;2023-08-06T12:10:12;0.00;;;0.00;;
5971;SDS011;3012;49.944;8.454;2023-08-06T12:12:44;0.00;;;0.00;;
5971;SDS011;3012;49.944;8.454;2023-08-06T12:15:14;0.03;;;0.03;;
5971;SDS011;3012;49.944;8.454;2023-08-06T12:17:44;0.00;;;0.00;;
5971;SDS011;3012;49.944;8.454;2023-08-06T12:20:14;2.00;;;0.10;;
5971;SDS011;3012;49.944;8.454;2023-08-06T12:22:44;0.00;;;0.00;;
5971;SDS011;3012;49.944;8.454;2023-08-06T12:25:15;0.00;;;0.00;;
5971;SDS011;3012;49.944;8.454;2023-08-06T12:27:46;0.08;;;0.08;;
5971;SDS011;3012;49.944;8.454;2023-08-06T12:30:18;0.85;;;0.10;;
5971;SDS011;3012;49.944;8.454;2023-08-06T12:32:48;0.20;;;0.10;;
5971;SDS011;3012;49.944;8.454;2023-08-06T12:35:19;0.63;;;0.00;;
5971;SDS011;3012;49.944;8.454;2023-08-06T12:37:49;0.20;;;0.03;;
5971;SDS011;3012;49.944;8.454;2023-08-06T12:40:21;0.52;;;0.10;;
5971;SDS011;3012;49.944;8.454;2023-08-06T12:43:04;0.00;;;0.00;;
5971;SDS011;3012;49.944;8.454;2023-08-06T12:45:34;0.10;;;0.10;;
5971;SDS011;3012;49.944;8.454;2023-08-06T12:48:04;0.10;;;0.10;;
5971;SDS011;3012;49.944;8.454;2023-08-06T12:50:34;0.10;;;0.10;;
5971;SDS011;3012;49.944;8.454;2023-08-06T12:53:04;0.05;;;0.05;;
5971;SDS011;3012;49.944;8.454;2023-08-06T12:55:34;0.28;;;0.10;;
5971;SDS011;3012;49.944;8.454;2023-08-06T12:58:06;0.03;;;0.03;;
5971;SDS011;3012;49.944;8.454;2023-08-06T13:00:36;0.10;;;0.10;;
5971;SDS011;3012;49.944;8.454;2023-08-06T13:03:06;1.10;;;0.30;;
5971;SDS011;3012;49.944;8.454;2023-08-06T13:05:37;0.80;;;0.15;;
5971;SDS011;3012;49.944;8.454;2023-08-06T13:08:07;0.85;;;0.10;;
5971;SDS011;3012;49.944;8.454;2023-08-06T13:10:37;0.15;;;0.15;;
5971;SDS011;3012;49.944;8.454;2023-08-06T13:13:09;1.98;;;0.10;;
5971;SDS011;3012;49.944;8.454;2023-08-06T13:15:39;0.95;;;0.15;;
5971;SDS011;3012;49.944;8.454;2023-08-06T13:18:10;0.50;;;0.20;;
5971;SDS011;3012;49.944;8.454;2023-08-06T13:20:40;0.10;;;0.10;;
5971;SDS011;3012;49.944;8.454;2023-08-06T13:23:10;0.30;;;0.10;;
5971;SDS011;3012;49.944;8.454;2023-08-06T13:25:42;1.45;;;0.20;;
5971;SDS011;3012;49.944;8.454;2023-08-06T13:28:14;0.65;;;0.17;;
5971;SDS011;3012;49.944;8.454;2023-08-06T13:30:45;0.20;;;0.20;;
5971;SDS011;3012;49.944;8.454;2023-08-06T13:33:15;1.25;;;0.20;;
5971;SDS011;3012;49.944;8.454;2023-08-06T13:35:45;1.25;;;0.22;;
5971;SDS011;3012;49.944;8.454;2023-08-06T13:38:17;0.65;;;0.10;;
5971;SDS011;3012;49.944;8.454;2023-08-06T13:40:47;1.05;;;0.10;;
5971;SDS011;3012;49.944;8.454;2023-08-06T13:43:19;0.60;;;0.20;;
5971;SDS011;3012;49.944;8.454;2023-08-06T13:45:49;1.65;;;0.20;;
5971;SDS011;3012;49.944;8.454;2023-08-06T13:48:19;0.80;;;0.00;;
5971;SDS011;3012;49.944;8.454;2023-08-06T13:50:49;0.00;;;0.00;;
5971;SDS011;3012;49.944;8.454;2023-08-06T13:53:20;0.38;;;0.00;;
5971;SDS011;3012;49.944;8.454;2023-08-06T13:55:52;1.85;;;0.10;;
5971;SDS011;3012;49.944;8.454;2023-08-06T13:58:24;0.20;;;0.10;;
5971;SDS011;3012;49.944;8.454;2023-08-06T14:00:55;0.20;;;0.10;;
5971;SDS011;3012;49.944;8.454;2023-08-06T14:03:25;0.50;;;0.10;;
5971;SDS011;3012;49.944;8.454;2023-08-06T14:05:55;1.70;;;0.00;;
5971;SDS011;3012;49.944;8.454;2023-08-06T14:08:25;0.65;;;0.00;;
5971;SDS011;3012;49.944;8.454;2023-08-06T14:10:55;0.00;;;0.00;;
5971;SDS011;3012;49.944;8.454;2023-08-06T14:13:27;0.00;;;0.00;;
5971;SDS011;3012;49.944;8.454;2023-08-06T14:15:57;0.22;;;0.10;;
5971;SDS011;3012;49.944;8.454;2023-08-06T14:18:27;0.10;;;0.10;;
5971;SDS011;3012;49.944;8.454;2023-08-06T14:20:57;0.75;;;0.10;;
5971;SDS011;3012;49.944;8.454;2023-08-06T14:23:28;0.73;;;0.00;;
5971;SDS011;3012;49.944;8.454;2023-08-06T14:25:58;0.10;;;0.10;;
5971;SDS011;3012;49.944;8.454;2023-08-06T14:28:30;0.13;;;0.00;;
5971;SDS011;3012;49.944;8.454;2023-08-06T14:31:01;0.00;;;0.00;;
5971;SDS011;3012;49.944;8.454;2023-08-06T14:33:31;0.10;;;0.10;;
5971;SDS011;3012;49.944;8.454;2023-08-06T14:36:01;1.27;;;0.00;;
5971;SDS011;3012;49.944;8.454;2023-08-06T14:38:31;1.55;;;0.00;;
5971;SDS011;3012;49.944;8.454;2023-08-06T14:41:19;0.00;;;0.00;;
5971;SDS011;3012;49.944;8.454;2023-08-06T14:43:51;0.10;;;0.08;;
5971;SDS011;3012;49.944;8.454;2023-08-06T14:46:22;1.65;;;0.00;;
5971;SDS011;3012;49.944;8.454;2023-08-06T14:48:52;0.08;;;0.08;;
5971;SDS011;3012;49.944;8.454;2023-08-06T14:51:22;0.57;;;0.00;;
5971;SDS011;3012;49.944;8.454;2023-08-06T14:53:52;0.00;;;0.00;;
5971;SDS011;3012;49.944;8.454;2023-08-06T14:56:22;1.50;;;0.00;;
5971;SDS011;3012;49.944;8.454;2023-08-06T14:58:54;0.43;;;0.00;;
5971;SDS011;3012;49.944;8.454;2023-08-06T15:01:24;2.67;;;0.00;;
5971;SDS011;3012;49.944;8.454;2023-08-06T15:03:54;2.58;;;0.10;;
5971;SDS011;3012;49.944;8.454;2023-08-06T15:06:24;1.27;;;0.05;;
5971;SDS011;3012;49.944;8.454;2023-08-06T15:08:54;2.42;;;0.03;;
5971;SDS011;3012;49.944;8.454;2023-08-06T15:11:28;0.85;;;0.00;;
5971;SDS011;3012;49.944;8.454;2023-08-06T15:13:59;0.00;;;0.00;;
5971;SDS011;3012;49.944;8.454;2023-08-06T15:16:32;1.75;;;0.10;;
5971;SDS011;3012;49.944;8.454;2023-08-06T15:19:02;0.93;;;0.00;;
5971;SDS011;3012;49.944;8.454;2023-08-06T15:21:32;0.10;;;0.00;;
5971;SDS011;3012;49.944;8.454;2023-08-06T15:24:03;0.00;;;0.00;;
5971;SDS011;3012;49.944;8.454;2023-08-06T15:26:33;0.00;;;0.00;;
5971;SDS011;3012;49.944;8.454;2023-08-06T15:29:05;0.10;;;0.00;;
5971;SDS011;3012;49.944;8.454;2023-08-06T15:31:37;0.22;;;0.00;;
5971;SDS011;3012;49.944;8.454;2023-08-06T15:34:07;0.28;;;0.00;;
5971;SDS011;3012;49.944;8.454;2023-08-06T15:36:38;0.00;;;0.00;;
5971;SDS011;3012;49.944;8.454;2023-08-06T15:39:08;3.67;;;0.00;;
5971;SDS011;3012;49.944;8.454;2023-08-06T15:41:38;0.00;;;0.00;;